sensor_id;sensor_type;location;lat;lon;timestamp;temperature;humidity
60495;DHT22;46342;49.046;11.920;2022-10-16T00:01:59;17.70;76.30
60495;DHT22;46342;49.046;11.920;2022-10-16T00:04:25;17.60;76.20
60495;DHT22;46342;49.046;11.920;2022-10-16T00:06:50;17.70;76.40
60495;DHT22;46342;49.046;11.920;2022-10-16T00:09:16;17.70;76.40
60495;DHT22;46342;49.046;11.920;2022-10-16T00:11:42;17.70;77.30
60495;DHT22;46342;49.046;11.920;2022-10-16T00:14:10;17.70;76.40
60495;DHT22;46342;49.046;11.920;2022-10-16T00:16:36;17.70;76.40
60495;DHT22;46342;49.046;11.920;2022-10-16T00:19:02;17.70;76.40
60495;DHT22;46342;49.046;11.920;2022-10-16T00:21:29;17.70;76.50
60495;DHT22;46342;49.046;11.920;2022-10-16T00:23:58;17.70;76.50
60495;DHT22;46342;49.046;11.920;2022-10-16T00:26:25;17.70;76.60
60495;DHT22;46342;49.046;11.920;2022-10-16T00:28:51;17.70;77.70
60495;DHT22;46342;49.046;11.920;2022-10-16T00:31:19;17.70;76.60
60495;DHT22;46342;49.046;11.920;2022-10-16T00:33:45;17.70;76.60
60495;DHT22;46342;49.046;11.920;2022-10-16T00:36:13;17.60;76.40
60495;DHT22;46342;49.046;11.920;2022-10-16T00:38:39;17.60;76.60
60495;DHT22;46342;49.046;11.920;2022-10-16T00:41:06;17.60;76.40
60495;DHT22;46342;49.046;11.920;2022-10-16T00:43:38;17.60;76.50
60495;DHT22;46342;49.046;11.920;2022-10-16T00:46:11;17.60;76.60
60495;DHT22;46342;49.046;11.920;2022-10-16T00:48:37;17.60;76.50
60495;DHT22;46342;49.046;11.920;2022-10-16T00:51:04;17.60;76.40
60495;DHT22;46342;49.046;11.920;2022-10-16T00:53:31;17.60;76.40
60495;DHT22;46342;49.046;11.920;2022-10-16T00:55:56;17.60;76.40
60495;DHT22;46342;49.046;11.920;2022-10-16T00:58:22;17.70;76.50
60495;DHT22;46342;49.046;11.920;2022-10-16T01:00:48;17.50;76.30
60495;DHT22;46342;49.046;11.920;2022-10-16T01:03:43;17.60;76.40
60495;DHT22;46342;49.046;11.920;2022-10-16T01:09:11;17.60;76.40
60495;DHT22;46342;49.046;11.920;2022-10-16T01:17:19;17.60;76.20
60495;DHT22;46342;49.046;11.920;2022-10-16T01:22:14;17.60;76.40
60495;DHT22;46342;49.046;11.920;2022-10-16T01:24:48;17.50;76.30
60495;DHT22;46342;49.046;11.920;2022-10-16T01:27:23;17.60;76.60
60495;DHT22;46342;49.046;11.920;2022-10-16T01:35:02;17.50;76.50
60495;DHT22;46342;49.046;11.920;2022-10-16T01:37:40;17.50;76.60
60495;DHT22;46342;49.046;11.920;2022-10-16T01:40:11;17.50;76.70
60495;DHT22;46342;49.046;11.920;2022-10-16T01:42:39;17.50;76.50
60495;DHT22;46342;49.046;11.920;2022-10-16T01:45:05;17.50;76.70
60495;DHT22;46342;49.046;11.920;2022-10-16T01:47:34;17.50;76.50
60495;DHT22;46342;49.046;11.920;2022-10-16T01:50:02;17.50;76.10
60495;DHT22;46342;49.046;11.920;2022-10-16T01:52:32;17.50;76.20
60495;DHT22;46342;49.046;11.920;2022-10-16T01:55:01;17.40;76.30
60495;DHT22;46342;49.046;11.920;2022-10-16T01:57:28;17.40;76.30
60495;DHT22;46342;49.046;11.920;2022-10-16T01:59:58;17.40;76.50
60495;DHT22;46342;49.046;11.920;2022-10-16T02:02:28;17.40;76.50
60495;DHT22;46342;49.046;11.920;2022-10-16T02:05:14;17.40;76.60
60495;DHT22;46342;49.046;11.920;2022-10-16T02:07:41;17.40;76.80
60495;DHT22;46342;49.046;11.920;2022-10-16T02:10:08;17.40;76.60
60495;DHT22;46342;49.046;11.920;2022-10-16T02:12:36;17.40;76.70
60495;DHT22;46342;49.046;11.920;2022-10-16T02:15:05;17.40;76.90
60495;DHT22;46342;49.046;11.920;2022-10-16T02:17:31;17.40;76.70
60495;DHT22;46342;49.046;11.920;2022-10-16T02:19:57;17.30;76.60
60495;DHT22;46342;49.046;11.920;2022-10-16T02:22:38;17.40;76.80
60495;DHT22;46342;49.046;11.920;2022-10-16T02:25:30;17.40;77.20
60495;DHT22;46342;49.046;11.920;2022-10-16T02:28:19;17.40;78.20
60495;DHT22;46342;49.046;11.920;2022-10-16T02:31:01;17.40;77.20
60495;DHT22;46342;49.046;11.920;2022-10-16T02:33:29;17.40;76.90
60495;DHT22;46342;49.046;11.920;2022-10-16T02:35:57;17.30;76.60
60495;DHT22;46342;49.046;11.920;2022-10-16T02:38:24;17.30;76.70
60495;DHT22;46342;49.046;11.920;2022-10-16T02:40:50;17.30;76.80
60495;DHT22;46342;49.046;11.920;2022-10-16T02:43:16;17.30;76.70
60495;DHT22;46342;49.046;11.920;2022-10-16T02:45:42;17.30;76.70
60495;DHT22;46342;49.046;11.920;2022-10-16T02:48:08;17.30;76.70
60495;DHT22;46342;49.046;11.920;2022-10-16T02:50:33;17.30;76.80
60495;DHT22;46342;49.046;11.920;2022-10-16T02:52:59;17.30;76.80
60495;DHT22;46342;49.046;11.920;2022-10-16T02:55:25;17.30;76.80
60495;DHT22;46342;49.046;11.920;2022-10-16T02:57:51;17.30;76.90
60495;DHT22;46342;49.046;11.920;2022-10-16T03:00:17;17.30;76.80
60495;DHT22;46342;49.046;11.920;2022-10-16T03:02:44;17.30;76.80
60495;DHT22;46342;49.046;11.920;2022-10-16T03:05:10;17.30;76.90
60495;DHT22;46342;49.046;11.920;2022-10-16T03:07:35;17.30;76.80
60495;DHT22;46342;49.046;11.920;2022-10-16T03:10:01;17.30;76.80
60495;DHT22;46342;49.046;11.920;2022-10-16T03:12:27;17.30;76.80
60495;DHT22;46342;49.046;11.920;2022-10-16T03:14:53;17.30;76.80
60495;DHT22;46342;49.046;11.920;2022-10-16T03:17:19;17.30;76.80
60495;DHT22;46342;49.046;11.920;2022-10-16T03:19:44;17.30;76.80
60495;DHT22;46342;49.046;11.920;2022-10-16T03:22:10;17.30;76.80
60495;DHT22;46342;49.046;11.920;2022-10-16T03:24:36;17.30;76.80
60495;DHT22;46342;49.046;11.920;2022-10-16T03:27:02;17.30;76.80
60495;DHT22;46342;49.046;11.920;2022-10-16T03:29:28;17.30;76.90
60495;DHT22;46342;49.046;11.920;2022-10-16T03:31:55;17.30;76.90
60495;DHT22;46342;49.046;11.920;2022-10-16T03:34:21;17.30;77.00
60495;DHT22;46342;49.046;11.920;2022-10-16T03:36:46;17.30;76.90
60495;DHT22;46342;49.046;11.920;2022-10-16T03:39:12;17.30;76.90
60495;DHT22;46342;49.046;11.920;2022-10-16T03:41:37;17.30;76.90
60495;DHT22;46342;49.046;11.920;2022-10-16T03:44:03;17.30;76.80
60495;DHT22;46342;49.046;11.920;2022-10-16T03:46:29;17.30;76.80
60495;DHT22;46342;49.046;11.920;2022-10-16T03:48:54;17.20;76.60
60495;DHT22;46342;49.046;11.920;2022-10-16T03:51:20;17.30;76.80
60495;DHT22;46342;49.046;11.920;2022-10-16T03:53:46;17.20;77.50
60495;DHT22;46342;49.046;11.920;2022-10-16T03:56:11;17.20;76.40
60495;DHT22;46342;49.046;11.920;2022-10-16T03:58:37;17.20;76.30
60495;DHT22;46342;49.046;11.920;2022-10-16T04:01:03;17.20;76.20
60495;DHT22;46342;49.046;11.920;2022-10-16T04:03:28;17.20;76.10
60495;DHT22;46342;49.046;11.920;2022-10-16T04:05:54;17.20;76.00
60495;DHT22;46342;49.046;11.920;2022-10-16T04:08:20;17.10;75.90
60495;DHT22;46342;49.046;11.920;2022-10-16T04:10:46;17.10;75.90
60495;DHT22;46342;49.046;11.920;2022-10-16T04:13:12;17.10;75.90
60495;DHT22;46342;49.046;11.920;2022-10-16T04:15:37;17.10;75.90
60495;DHT22;46342;49.046;11.920;2022-10-16T04:18:04;17.00;75.90
60495;DHT22;46342;49.046;11.920;2022-10-16T04:20:30;17.00;76.00
60495;DHT22;46342;49.046;11.920;2022-10-16T04:22:55;17.00;76.10
60495;DHT22;46342;49.046;11.920;2022-10-16T04:25:21;17.00;76.10
60495;DHT22;46342;49.046;11.920;2022-10-16T04:27:47;17.00;76.20
60495;DHT22;46342;49.046;11.920;2022-10-16T04:30:13;17.00;76.30
60495;DHT22;46342;49.046;11.920;2022-10-16T04:32:39;17.00;76.30
60495;DHT22;46342;49.046;11.920;2022-10-16T04:35:05;17.00;76.30
60495;DHT22;46342;49.046;11.920;2022-10-16T04:37:31;16.90;76.20
60495;DHT22;46342;49.046;11.920;2022-10-16T04:39:56;16.90;76.20
60495;DHT22;46342;49.046;11.920;2022-10-16T04:42:22;16.90;76.30
60495;DHT22;46342;49.046;11.920;2022-10-16T04:44:47;16.90;76.40
60495;DHT22;46342;49.046;11.920;2022-10-16T04:47:13;16.90;76.40
60495;DHT22;46342;49.046;11.920;2022-10-16T04:49:39;16.90;76.40
60495;DHT22;46342;49.046;11.920;2022-10-16T04:52:07;16.90;76.40
60495;DHT22;46342;49.046;11.920;2022-10-16T04:54:34;16.90;76.40
60495;DHT22;46342;49.046;11.920;2022-10-16T04:57:00;16.90;76.40
60495;DHT22;46342;49.046;11.920;2022-10-16T04:59:26;16.90;76.50
60495;DHT22;46342;49.046;11.920;2022-10-16T05:01:51;16.90;76.50
60495;DHT22;46342;49.046;11.920;2022-10-16T05:04:17;16.80;76.40
60495;DHT22;46342;49.046;11.920;2022-10-16T05:06:42;16.90;76.60
60495;DHT22;46342;49.046;11.920;2022-10-16T05:09:08;16.90;76.60
60495;DHT22;46342;49.046;11.920;2022-10-16T05:11:34;16.80;76.50
60495;DHT22;46342;49.046;11.920;2022-10-16T05:14:00;16.80;76.60
60495;DHT22;46342;49.046;11.920;2022-10-16T05:16:26;16.80;76.60
60495;DHT22;46342;49.046;11.920;2022-10-16T05:18:52;16.80;76.60
60495;DHT22;46342;49.046;11.920;2022-10-16T05:21:18;16.80;76.60
60495;DHT22;46342;49.046;11.920;2022-10-16T05:23:44;16.80;76.60
60495;DHT22;46342;49.046;11.920;2022-10-16T05:26:10;16.80;76.60
60495;DHT22;46342;49.046;11.920;2022-10-16T05:28:35;16.80;76.60
60495;DHT22;46342;49.046;11.920;2022-10-16T05:31:05;16.80;76.60
60495;DHT22;46342;49.046;11.920;2022-10-16T05:33:32;16.80;77.00
60495;DHT22;46342;49.046;11.920;2022-10-16T05:36:01;16.80;76.70
60495;DHT22;46342;49.046;11.920;2022-10-16T05:38:27;16.80;77.00
60495;DHT22;46342;49.046;11.920;2022-10-16T05:40:53;16.80;76.70
60495;DHT22;46342;49.046;11.920;2022-10-16T05:43:19;16.80;77.70
60495;DHT22;46342;49.046;11.920;2022-10-16T05:45:56;16.80;76.80
60495;DHT22;46342;49.046;11.920;2022-10-16T05:48:22;16.80;77.30
60495;DHT22;46342;49.046;11.920;2022-10-16T05:50:48;16.80;76.80
60495;DHT22;46342;49.046;11.920;2022-10-16T05:53:14;16.80;76.80
60495;DHT22;46342;49.046;11.920;2022-10-16T05:55:39;16.80;76.80
60495;DHT22;46342;49.046;11.920;2022-10-16T05:58:05;16.80;76.80
60495;DHT22;46342;49.046;11.920;2022-10-16T06:00:30;16.70;76.70
60495;DHT22;46342;49.046;11.920;2022-10-16T06:02:56;16.70;76.70
60495;DHT22;46342;49.046;11.920;2022-10-16T06:05:21;16.80;76.80
60495;DHT22;46342;49.046;11.920;2022-10-16T06:07:47;16.80;76.90
60495;DHT22;46342;49.046;11.920;2022-10-16T06:10:12;16.70;76.80
60495;DHT22;46342;49.046;11.920;2022-10-16T06:12:38;16.70;76.90
60495;DHT22;46342;49.046;11.920;2022-10-16T06:15:04;16.70;76.90
60495;DHT22;46342;49.046;11.920;2022-10-16T06:17:29;16.70;77.00
60495;DHT22;46342;49.046;11.920;2022-10-16T06:19:55;16.70;77.00
60495;DHT22;46342;49.046;11.920;2022-10-16T06:22:21;16.70;77.00
60495;DHT22;46342;49.046;11.920;2022-10-16T06:24:46;16.70;77.00
60495;DHT22;46342;49.046;11.920;2022-10-16T06:27:12;16.70;77.00
60495;DHT22;46342;49.046;11.920;2022-10-16T06:29:38;16.70;77.00
60495;DHT22;46342;49.046;11.920;2022-10-16T06:32:04;16.70;77.10
60495;DHT22;46342;49.046;11.920;2022-10-16T06:34:29;16.70;77.10
60495;DHT22;46342;49.046;11.920;2022-10-16T06:36:55;16.70;77.10
60495;DHT22;46342;49.046;11.920;2022-10-16T06:39:21;16.70;77.10
60495;DHT22;46342;49.046;11.920;2022-10-16T06:41:46;16.70;77.10
60495;DHT22;46342;49.046;11.920;2022-10-16T06:44:12;16.70;77.10
60495;DHT22;46342;49.046;11.920;2022-10-16T06:46:37;16.70;77.20
60495;DHT22;46342;49.046;11.920;2022-10-16T06:49:03;16.70;77.20
60495;DHT22;46342;49.046;11.920;2022-10-16T06:51:28;16.70;77.20
60495;DHT22;46342;49.046;11.920;2022-10-16T06:53:55;16.70;77.20
60495;DHT22;46342;49.046;11.920;2022-10-16T06:56:26;16.80;77.50
60495;DHT22;46342;49.046;11.920;2022-10-16T06:58:52;16.80;77.60
60495;DHT22;46342;49.046;11.920;2022-10-16T07:01:20;16.70;77.50
60495;DHT22;46342;49.046;11.920;2022-10-16T07:03:46;16.80;77.80
60495;DHT22;46342;49.046;11.920;2022-10-16T07:06:14;16.80;78.70
60495;DHT22;46342;49.046;11.920;2022-10-16T07:08:41;16.80;78.10
60495;DHT22;46342;49.046;11.920;2022-10-16T07:11:10;16.80;78.20
60495;DHT22;46342;49.046;11.920;2022-10-16T07:13:35;16.90;78.50
60495;DHT22;46342;49.046;11.920;2022-10-16T07:16:22;16.90;78.90
60495;DHT22;46342;49.046;11.920;2022-10-16T07:18:47;16.90;79.10
60495;DHT22;46342;49.046;11.920;2022-10-16T07:21:16;16.90;78.30
60495;DHT22;46342;49.046;11.920;2022-10-16T07:23:42;17.00;78.70
60495;DHT22;46342;49.046;11.920;2022-10-16T07:26:09;17.00;79.10
60495;DHT22;46342;49.046;11.920;2022-10-16T07:28:35;17.00;78.40
60495;DHT22;46342;49.046;11.920;2022-10-16T07:31:06;17.10;78.50
60495;DHT22;46342;49.046;11.920;2022-10-16T07:33:32;17.10;78.70
60495;DHT22;46342;49.046;11.920;2022-10-16T07:35:58;17.10;78.80
60495;DHT22;46342;49.046;11.920;2022-10-16T07:38:24;17.10;78.90
60495;DHT22;46342;49.046;11.920;2022-10-16T07:41:00;17.10;79.00
60495;DHT22;46342;49.046;11.920;2022-10-16T07:43:27;17.20;80.00
60495;DHT22;46342;49.046;11.920;2022-10-16T07:45:53;17.20;79.50
60495;DHT22;46342;49.046;11.920;2022-10-16T07:48:20;17.30;79.70
60495;DHT22;46342;49.046;11.920;2022-10-16T07:50:46;17.40;79.80
60495;DHT22;46342;49.046;11.920;2022-10-16T07:53:12;17.40;79.90
60495;DHT22;46342;49.046;11.920;2022-10-16T07:55:38;17.40;79.90
60495;DHT22;46342;49.046;11.920;2022-10-16T07:58:04;17.50;80.00
60495;DHT22;46342;49.046;11.920;2022-10-16T08:00:30;17.50;80.10
60495;DHT22;46342;49.046;11.920;2022-10-16T08:02:57;17.60;80.10
60495;DHT22;46342;49.046;11.920;2022-10-16T08:05:30;17.60;80.20
60495;DHT22;46342;49.046;11.920;2022-10-16T08:07:56;17.70;80.60
60495;DHT22;46342;49.046;11.920;2022-10-16T08:10:24;17.80;80.30
60495;DHT22;46342;49.046;11.920;2022-10-16T08:12:50;17.90;80.80
60495;DHT22;46342;49.046;11.920;2022-10-16T08:15:16;17.90;80.70
60495;DHT22;46342;49.046;11.920;2022-10-16T08:17:42;17.80;81.80
60495;DHT22;46342;49.046;11.920;2022-10-16T08:20:08;18.00;81.20
60495;DHT22;46342;49.046;11.920;2022-10-16T08:22:34;18.10;81.40
60495;DHT22;46342;49.046;11.920;2022-10-16T08:24:59;18.30;81.60
60495;DHT22;46342;49.046;11.920;2022-10-16T08:27:25;18.30;81.50
60495;DHT22;46342;49.046;11.920;2022-10-16T08:29:50;18.40;81.50
60495;DHT22;46342;49.046;11.920;2022-10-16T08:32:16;18.50;81.40
60495;DHT22;46342;49.046;11.920;2022-10-16T08:34:41;18.60;81.20
60495;DHT22;46342;49.046;11.920;2022-10-16T08:37:07;18.60;80.90
60495;DHT22;46342;49.046;11.920;2022-10-16T08:39:36;18.60;80.70
60495;DHT22;46342;49.046;11.920;2022-10-16T08:47:49;18.80;80.30
60495;DHT22;46342;49.046;11.920;2022-10-16T08:50:25;18.80;79.90
60495;DHT22;46342;49.046;11.920;2022-10-16T08:52:53;18.80;79.50
60495;DHT22;46342;49.046;11.920;2022-10-16T08:55:38;18.90;79.30
60495;DHT22;46342;49.046;11.920;2022-10-16T08:58:17;18.90;79.50
60495;DHT22;46342;49.046;11.920;2022-10-16T09:00:46;19.00;79.80
60495;DHT22;46342;49.046;11.920;2022-10-16T09:08:58;19.10;80.10
60495;DHT22;46342;49.046;11.920;2022-10-16T09:11:57;19.10;80.10
60495;DHT22;46342;49.046;11.920;2022-10-16T09:20:14;19.30;80.30
60495;DHT22;46342;49.046;11.920;2022-10-16T09:22:43;19.40;80.30
60495;DHT22;46342;49.046;11.920;2022-10-16T09:25:27;19.30;80.20
60495;DHT22;46342;49.046;11.920;2022-10-16T09:27:53;19.50;80.00
60495;DHT22;46342;49.046;11.920;2022-10-16T09:30:20;19.50;80.10
60495;DHT22;46342;49.046;11.920;2022-10-16T09:32:49;19.60;80.30
60495;DHT22;46342;49.046;11.920;2022-10-16T09:35:19;19.70;80.60
60495;DHT22;46342;49.046;11.920;2022-10-16T09:37:49;19.80;80.80
60495;DHT22;46342;49.046;11.920;2022-10-16T09:40:44;19.80;80.70
60495;DHT22;46342;49.046;11.920;2022-10-16T09:46:21;20.00;80.70
60495;DHT22;46342;49.046;11.920;2022-10-16T09:48:48;20.20;80.70
60495;DHT22;46342;49.046;11.920;2022-10-16T09:51:31;20.30;80.70
60495;DHT22;46342;49.046;11.920;2022-10-16T09:53:59;20.40;80.20
60495;DHT22;46342;49.046;11.920;2022-10-16T09:56:33;20.50;80.30
60495;DHT22;46342;49.046;11.920;2022-10-16T09:59:01;20.60;79.90
60495;DHT22;46342;49.046;11.920;2022-10-16T10:01:36;20.70;80.10
60495;DHT22;46342;49.046;11.920;2022-10-16T10:04:03;20.70;79.10
60495;DHT22;46342;49.046;11.920;2022-10-16T10:06:51;20.80;79.90
60495;DHT22;46342;49.046;11.920;2022-10-16T10:09:24;21.00;78.80
60495;DHT22;46342;49.046;11.920;2022-10-16T10:11:54;21.00;79.20
60495;DHT22;46342;49.046;11.920;2022-10-16T10:14:21;21.10;79.10
60495;DHT22;46342;49.046;11.920;2022-10-16T10:16:48;21.20;79.50
60495;DHT22;46342;49.046;11.920;2022-10-16T10:19:37;21.30;79.40
60495;DHT22;46342;49.046;11.920;2022-10-16T10:22:59;21.40;78.40
60495;DHT22;46342;49.046;11.920;2022-10-16T10:25:12;21.50;78.30
60495;DHT22;46342;49.046;11.920;2022-10-16T10:34:07;21.90;78.70
60495;DHT22;46342;49.046;11.920;2022-10-16T10:39:16;22.10;77.10
60495;DHT22;46342;49.046;11.920;2022-10-16T10:47:52;22.30;76.00
60495;DHT22;46342;49.046;11.920;2022-10-16T10:53:43;22.40;75.20
60495;DHT22;46342;49.046;11.920;2022-10-16T10:59:00;22.50;75.60
60495;DHT22;46342;49.046;11.920;2022-10-16T11:01:50;22.50;75.10
60495;DHT22;46342;49.046;11.920;2022-10-16T11:07:30;22.60;75.10
60495;DHT22;46342;49.046;11.920;2022-10-16T11:10:03;22.60;74.60
60495;DHT22;46342;49.046;11.920;2022-10-16T11:12:36;22.60;75.20
60495;DHT22;46342;49.046;11.920;2022-10-16T11:15:13;22.70;74.50
60495;DHT22;46342;49.046;11.920;2022-10-16T11:17:48;22.70;74.50
60495;DHT22;46342;49.046;11.920;2022-10-16T11:20:24;22.70;74.70
60495;DHT22;46342;49.046;11.920;2022-10-16T11:22:56;22.70;74.60
60495;DHT22;46342;49.046;11.920;2022-10-16T11:25:28;22.70;74.30
60495;DHT22;46342;49.046;11.920;2022-10-16T11:28:23;22.70;74.30
60495;DHT22;46342;49.046;11.920;2022-10-16T11:36:33;22.80;73.50
60495;DHT22;46342;49.046;11.920;2022-10-16T11:41:51;22.80;74.80
60495;DHT22;46342;49.046;11.920;2022-10-16T11:44:51;22.90;73.80
60495;DHT22;46342;49.046;11.920;2022-10-16T11:50:25;23.00;75.30
60495;DHT22;46342;49.046;11.920;2022-10-16T11:53:00;23.10;73.30
60495;DHT22;46342;49.046;11.920;2022-10-16T11:55:34;23.10;75.20
60495;DHT22;46342;49.046;11.920;2022-10-16T11:58:24;23.30;74.40
60495;DHT22;46342;49.046;11.920;2022-10-16T12:06:22;23.50;73.90
60495;DHT22;46342;49.046;11.920;2022-10-16T12:08:50;23.50;72.70
60495;DHT22;46342;49.046;11.920;2022-10-16T12:14:18;23.70;72.50
60495;DHT22;46342;49.046;11.920;2022-10-16T12:16:58;23.70;70.40
60495;DHT22;46342;49.046;11.920;2022-10-16T12:19:30;23.80;71.20
60495;DHT22;46342;49.046;11.920;2022-10-16T12:22:01;23.80;71.60
60495;DHT22;46342;49.046;11.920;2022-10-16T12:24:31;23.90;72.10
60495;DHT22;46342;49.046;11.920;2022-10-16T12:26:58;23.90;72.00
60495;DHT22;46342;49.046;11.920;2022-10-16T12:29:36;23.90;71.70
60495;DHT22;46342;49.046;11.920;2022-10-16T12:32:04;24.00;69.00
60495;DHT22;46342;49.046;11.920;2022-10-16T12:34:42;24.00;70.30
60495;DHT22;46342;49.046;11.920;2022-10-16T12:37:24;24.00;68.70
60495;DHT22;46342;49.046;11.920;2022-10-16T12:39:52;24.00;68.70
60495;DHT22;46342;49.046;11.920;2022-10-16T12:42:19;24.00;69.70
60495;DHT22;46342;49.046;11.920;2022-10-16T12:44:45;24.10;68.70
60495;DHT22;46342;49.046;11.920;2022-10-16T12:47:37;24.00;69.70
60495;DHT22;46342;49.046;11.920;2022-10-16T12:50:21;24.10;67.60
60495;DHT22;46342;49.046;11.920;2022-10-16T12:52:48;24.00;69.40
60495;DHT22;46342;49.046;11.920;2022-10-16T12:55:18;24.00;69.30
60495;DHT22;46342;49.046;11.920;2022-10-16T13:00:33;24.00;68.30
60495;DHT22;46342;49.046;11.920;2022-10-16T13:06:07;24.10;66.70
60495;DHT22;46342;49.046;11.920;2022-10-16T13:15:08;24.00;66.50
60495;DHT22;46342;49.046;11.920;2022-10-16T13:17:41;24.00;67.20
60495;DHT22;46342;49.046;11.920;2022-10-16T13:20:18;23.90;68.50
60495;DHT22;46342;49.046;11.920;2022-10-16T13:28:08;23.90;66.60
60495;DHT22;46342;49.046;11.920;2022-10-16T13:30:42;23.90;67.40
60495;DHT22;46342;49.046;11.920;2022-10-16T13:33:26;23.90;66.80
60495;DHT22;46342;49.046;11.920;2022-10-16T13:35:54;24.00;65.90
60495;DHT22;46342;49.046;11.920;2022-10-16T13:38:23;24.00;67.50
60495;DHT22;46342;49.046;11.920;2022-10-16T13:43:41;23.90;67.70
60495;DHT22;46342;49.046;11.920;2022-10-16T13:46:20;24.00;65.80
60495;DHT22;46342;49.046;11.920;2022-10-16T13:48:57;24.00;65.80
60495;DHT22;46342;49.046;11.920;2022-10-16T13:51:23;24.00;65.80
60495;DHT22;46342;49.046;11.920;2022-10-16T13:53:49;24.00;67.40
60495;DHT22;46342;49.046;11.920;2022-10-16T13:56:17;24.00;67.10
60495;DHT22;46342;49.046;11.920;2022-10-16T13:58:43;24.00;66.60
60495;DHT22;46342;49.046;11.920;2022-10-16T14:01:19;24.00;67.00
60495;DHT22;46342;49.046;11.920;2022-10-16T14:03:46;24.10;65.30
60495;DHT22;46342;49.046;11.920;2022-10-16T14:06:14;24.10;66.90
60495;DHT22;46342;49.046;11.920;2022-10-16T14:09:08;24.10;66.50
60495;DHT22;46342;49.046;11.920;2022-10-16T14:11:44;24.20;65.20
60495;DHT22;46342;49.046;11.920;2022-10-16T14:14:12;24.20;65.80
60495;DHT22;46342;49.046;11.920;2022-10-16T14:16:40;24.20;66.00
60495;DHT22;46342;49.046;11.920;2022-10-16T14:21:41;24.30;64.60
60495;DHT22;46342;49.046;11.920;2022-10-16T14:24:13;24.20;66.10
60495;DHT22;46342;49.046;11.920;2022-10-16T14:26:47;24.30;64.30
60495;DHT22;46342;49.046;11.920;2022-10-16T14:29:17;24.30;65.90
60495;DHT22;46342;49.046;11.920;2022-10-16T14:32:00;24.30;65.40
60495;DHT22;46342;49.046;11.920;2022-10-16T14:34:36;24.30;63.60
60495;DHT22;46342;49.046;11.920;2022-10-16T14:39:39;24.40;63.90
60495;DHT22;46342;49.046;11.920;2022-10-16T14:42:14;24.40;65.70
60495;DHT22;46342;49.046;11.920;2022-10-16T14:44:41;24.40;64.10
60495;DHT22;46342;49.046;11.920;2022-10-16T14:47:09;24.40;65.40
60495;DHT22;46342;49.046;11.920;2022-10-16T14:49:38;24.40;65.00
60495;DHT22;46342;49.046;11.920;2022-10-16T14:52:09;24.40;65.40
60495;DHT22;46342;49.046;11.920;2022-10-16T14:54:35;24.50;64.40
60495;DHT22;46342;49.046;11.920;2022-10-16T14:57:01;24.50;65.30
60495;DHT22;46342;49.046;11.920;2022-10-16T14:59:38;24.50;65.40
60495;DHT22;46342;49.046;11.920;2022-10-16T15:04:54;24.50;63.30
60495;DHT22;46342;49.046;11.920;2022-10-16T15:07:20;24.50;65.30
60495;DHT22;46342;49.046;11.920;2022-10-16T15:09:46;24.50;65.30
60495;DHT22;46342;49.046;11.920;2022-10-16T15:12:12;24.50;65.20
60495;DHT22;46342;49.046;11.920;2022-10-16T15:14:37;24.50;65.30
60495;DHT22;46342;49.046;11.920;2022-10-16T15:17:03;24.50;65.10
60495;DHT22;46342;49.046;11.920;2022-10-16T15:19:29;24.50;65.00
60495;DHT22;46342;49.046;11.920;2022-10-16T15:21:54;24.50;64.80
60495;DHT22;46342;49.046;11.920;2022-10-16T15:24:20;24.50;64.80
60495;DHT22;46342;49.046;11.920;2022-10-16T15:26:46;24.40;64.50
60495;DHT22;46342;49.046;11.920;2022-10-16T15:29:12;24.40;64.30
60495;DHT22;46342;49.046;11.920;2022-10-16T15:31:38;24.40;64.20
60495;DHT22;46342;49.046;11.920;2022-10-16T15:34:03;24.30;64.00
60495;DHT22;46342;49.046;11.920;2022-10-16T15:36:37;24.30;64.00
60495;DHT22;46342;49.046;11.920;2022-10-16T15:39:20;24.30;63.50
60495;DHT22;46342;49.046;11.920;2022-10-16T15:41:47;24.20;63.10
60495;DHT22;46342;49.046;11.920;2022-10-16T15:44:18;24.10;63.60
60495;DHT22;46342;49.046;11.920;2022-10-16T15:46:44;24.10;63.80
60495;DHT22;46342;49.046;11.920;2022-10-16T15:49:11;23.90;63.50
60495;DHT22;46342;49.046;11.920;2022-10-16T15:51:41;23.90;63.60
60495;DHT22;46342;49.046;11.920;2022-10-16T15:54:07;23.80;63.20
60495;DHT22;46342;49.046;11.920;2022-10-16T15:56:33;23.70;63.60
60495;DHT22;46342;49.046;11.920;2022-10-16T15:58:59;23.70;63.60
60495;DHT22;46342;49.046;11.920;2022-10-16T16:01:26;23.50;63.50
60495;DHT22;46342;49.046;11.920;2022-10-16T16:03:53;23.40;63.50
60495;DHT22;46342;49.046;11.920;2022-10-16T16:06:21;23.40;63.70
60495;DHT22;46342;49.046;11.920;2022-10-16T16:08:49;23.30;63.60
60495;DHT22;46342;49.046;11.920;2022-10-16T16:11:16;23.20;63.80
60495;DHT22;46342;49.046;11.920;2022-10-16T16:13:42;23.10;63.80
60495;DHT22;46342;49.046;11.920;2022-10-16T16:16:10;23.10;64.10
60495;DHT22;46342;49.046;11.920;2022-10-16T16:18:35;23.00;64.20
60495;DHT22;46342;49.046;11.920;2022-10-16T16:21:02;23.00;64.00
60495;DHT22;46342;49.046;11.920;2022-10-16T16:23:27;22.80;64.10
60495;DHT22;46342;49.046;11.920;2022-10-16T16:26:09;22.70;65.00
60495;DHT22;46342;49.046;11.920;2022-10-16T16:28:36;22.70;63.90
60495;DHT22;46342;49.046;11.920;2022-10-16T16:31:03;22.60;64.40
60495;DHT22;46342;49.046;11.920;2022-10-16T16:33:29;22.50;64.40
60495;DHT22;46342;49.046;11.920;2022-10-16T16:35:57;22.50;64.60
60495;DHT22;46342;49.046;11.920;2022-10-16T16:38:23;22.40;64.70
60495;DHT22;46342;49.046;11.920;2022-10-16T16:40:48;22.30;64.80
60495;DHT22;46342;49.046;11.920;2022-10-16T16:43:14;22.20;65.80
60495;DHT22;46342;49.046;11.920;2022-10-16T16:45:39;22.10;64.80
60495;DHT22;46342;49.046;11.920;2022-10-16T16:48:05;22.10;65.00
60495;DHT22;46342;49.046;11.920;2022-10-16T16:50:38;22.10;65.10
60495;DHT22;46342;49.046;11.920;2022-10-16T16:53:03;22.00;65.00
60495;DHT22;46342;49.046;11.920;2022-10-16T16:55:29;21.90;65.10
60495;DHT22;46342;49.046;11.920;2022-10-16T16:57:55;21.90;65.20
60495;DHT22;46342;49.046;11.920;2022-10-16T17:00:22;21.80;65.30
60495;DHT22;46342;49.046;11.920;2022-10-16T17:02:48;21.70;65.40
60495;DHT22;46342;49.046;11.920;2022-10-16T17:05:15;21.70;65.50
60495;DHT22;46342;49.046;11.920;2022-10-16T17:07:40;21.60;65.60
60495;DHT22;46342;49.046;11.920;2022-10-16T17:10:06;21.60;65.60
60495;DHT22;46342;49.046;11.920;2022-10-16T17:12:32;21.50;65.60
60495;DHT22;46342;49.046;11.920;2022-10-16T17:14:58;21.50;65.80
60495;DHT22;46342;49.046;11.920;2022-10-16T17:17:23;21.40;65.90